createdAt,value
2017-04-07T00:00:13.953Z,38.80
2017-04-07T00:01:11.964Z,38.00
2017-04-07T00:02:09.781Z,38.40
2017-04-07T00:03:07.588Z,39.00
2017-04-07T00:04:06.133Z,38.00
2017-04-07T00:05:03.947Z,39.10
2017-04-07T00:06:01.725Z,39.20
2017-04-07T00:07:00.310Z,38.90
2017-04-07T00:07:59.486Z,38.70
2017-04-07T00:08:58.033Z,38.70
2017-04-07T00:09:55.817Z,38.90
2017-04-07T00:11:52.074Z,38.60
2017-04-07T00:12:50.613Z,38.80
2017-04-07T00:13:49.017Z,39.20
2017-04-07T00:14:47.549Z,39.10
2017-04-07T00:15:45.373Z,39.90
2017-04-07T00:16:43.158Z,39.30
2017-04-07T00:17:41.694Z,38.80
2017-04-07T00:18:39.489Z,39.10
2017-04-07T00:19:37.321Z,39.60
2017-04-07T00:20:35.117Z,40.00
2017-04-07T00:21:32.893Z,39.70
2017-04-07T00:22:31.431Z,39.50
2017-04-07T00:23:29.505Z,40.30
2017-04-07T00:25:26.549Z,39.70
2017-04-07T00:26:24.337Z,39.40
2017-04-07T00:27:22.150Z,39.30
2017-04-07T00:29:18.401Z,39.60
2017-04-07T00:30:16.241Z,39.70
2017-04-07T00:31:14.057Z,40.60
2017-04-07T00:32:11.898Z,40.00
2017-04-07T00:33:09.709Z,39.80
2017-04-07T00:34:07.517Z,40.10
2017-04-07T00:35:05.318Z,40.20
2017-04-07T00:36:03.146Z,39.90
2017-04-07T00:37:00.969Z,39.40
2017-04-07T00:37:58.750Z,38.50
2017-04-07T00:39:55.025Z,39.60
2017-04-07T00:40:52.886Z,38.90
2017-04-07T00:41:51.422Z,38.80
2017-04-07T00:42:49.237Z,39.10
2017-04-07T00:43:47.017Z,39.90
2017-04-07T00:44:44.869Z,40.20
2017-04-07T00:45:42.690Z,40.60
2017-04-07T00:46:40.513Z,39.80
2017-04-07T00:47:38.341Z,40.40
2017-04-07T00:48:36.269Z,39.80
2017-04-07T00:49:34.053Z,39.40
2017-04-07T00:50:31.849Z,39.10
2017-04-07T00:51:29.657Z,39.50
2017-04-07T00:52:27.466Z,40.20
2017-04-07T00:53:25.258Z,40.20
2017-04-07T00:54:23.057Z,39.70
2017-04-07T00:55:20.875Z,39.50
2017-04-07T00:56:18.701Z,39.10
2017-04-07T00:57:16.552Z,39.60
2017-04-07T00:58:15.070Z,39.80
2017-04-07T00:59:12.881Z,40.10
2017-04-07T01:00:10.709Z,39.90
2017-04-07T01:01:09.284Z,39.10
2017-04-07T01:02:07.089Z,39.40
2017-04-07T01:03:04.939Z,38.80
2017-04-07T01:04:02.746Z,39.30
2017-04-07T01:05:00.573Z,40.50
2017-04-07T01:05:58.438Z,40.00
2017-04-07T01:06:56.633Z,39.20
2017-04-07T01:07:54.449Z,39.90
2017-04-07T01:08:52.429Z,39.80
2017-04-07T01:09:50.324Z,39.70
2017-04-07T01:10:48.138Z,40.00
2017-04-07T01:11:45.977Z,38.90
2017-04-07T01:12:44.220Z,38.40
2017-04-07T01:13:42.133Z,39.10
2017-04-07T01:14:40.344Z,38.80
2017-04-07T01:15:38.561Z,39.40
2017-04-07T01:16:36.393Z,38.90
2017-04-07T01:17:34.260Z,38.90
2017-04-07T01:18:32.133Z,40.30
2017-04-07T01:19:30.594Z,39.90
2017-04-07T01:21:26.917Z,40.00
2017-04-07T01:22:24.717Z,40.70
2017-04-07T01:23:22.791Z,40.60
2017-04-07T01:24:20.609Z,41.00
2017-04-07T01:25:19.169Z,40.70
2017-04-07T01:26:17.018Z,40.50
2017-04-07T01:28:13.802Z,40.60
2017-04-07T01:29:11.613Z,40.70
2017-04-07T01:31:07.885Z,40.90
2017-04-07T01:32:05.705Z,40.90
2017-04-07T01:33:03.649Z,41.30
2017-04-07T01:35:00.653Z,40.00
2017-04-07T01:35:58.493Z,38.80
2017-04-07T01:36:56.628Z,38.90
2017-04-07T01:37:55.174Z,39.90
2017-04-07T01:38:52.988Z,39.40
2017-04-07T01:39:55.420Z,39.20
2017-04-07T01:40:53.221Z,39.80
2017-04-07T01:41:51.040Z,40.00
2017-04-07T01:42:49.606Z,40.20
2017-04-07T01:43:48.146Z,40.70
2017-04-07T01:44:45.954Z,40.30
2017-04-07T01:45:43.777Z,40.90
2017-04-07T01:47:40.811Z,40.50
2017-04-07T01:48:38.641Z,40.00
2017-04-07T01:49:36.445Z,39.70
2017-04-07T01:50:34.244Z,40.10
2017-04-07T01:51:32.122Z,39.90
2017-04-07T01:52:30.742Z,39.60
2017-04-07T01:53:29.294Z,39.70
2017-04-07T01:54:27.125Z,40.20
2017-04-07T01:55:24.929Z,40.80
2017-04-07T01:56:23.501Z,39.90
2017-04-07T01:57:21.330Z,40.00
2017-04-07T01:58:19.117Z,39.90
2017-04-07T01:59:16.953Z,40.50
2017-04-07T02:00:14.819Z,40.30
2017-04-07T02:01:13.544Z,40.70
2017-04-07T02:02:11.409Z,41.00
2017-04-07T02:03:10.087Z,41.40
2017-04-07T02:04:07.913Z,40.20
2017-04-07T02:05:05.765Z,40.20
2017-04-07T02:06:03.761Z,40.30
2017-04-07T02:07:02.621Z,40.10
2017-04-07T02:08:59.058Z,41.00
2017-04-07T02:09:56.865Z,41.00
2017-04-07T02:10:54.659Z,41.00
2017-04-07T02:11:52.474Z,41.00
2017-04-07T02:12:51.057Z,41.50
2017-04-07T02:13:49.577Z,40.70
2017-04-07T02:14:47.389Z,40.50
2017-04-07T02:15:45.212Z,40.70
2017-04-07T02:16:43.038Z,42.30
2017-04-07T02:18:39.321Z,40.70
2017-04-07T02:19:37.118Z,40.90
2017-04-07T02:20:34.958Z,40.20
2017-04-07T02:21:32.777Z,40.80
2017-04-07T02:22:31.333Z,39.90
2017-04-07T02:23:29.425Z,40.00
2017-04-07T02:24:27.250Z,40.00
2017-04-07T02:25:25.033Z,40.00
2017-04-07T02:26:22.832Z,39.20
2017-04-07T02:27:20.653Z,39.90
2017-04-07T02:28:18.445Z,40.30
2017-04-07T02:29:16.249Z,40.60
2017-04-07T02:30:14.821Z,40.70
2017-04-07T02:31:13.340Z,40.90
2017-04-07T02:32:11.175Z,40.70
2017-04-07T02:33:09.087Z,41.00
2017-04-07T02:34:08.298Z,41.10
2017-04-07T02:35:06.132Z,41.00
2017-04-07T02:36:03.978Z,40.90
2017-04-07T02:37:01.808Z,41.50
2017-04-07T02:37:59.641Z,41.20
2017-04-07T02:38:57.433Z,41.40
2017-04-07T02:39:55.225Z,40.80
2017-04-07T02:40:53.780Z,40.50
2017-04-07T02:41:52.327Z,41.20
2017-04-07T02:42:50.136Z,41.20
2017-04-07T02:43:47.935Z,40.90
2017-04-07T02:44:45.736Z,40.70
2017-04-07T02:45:43.546Z,41.60
2017-04-07T02:46:41.345Z,41.40
2017-04-07T02:47:39.897Z,41.10
2017-04-07T02:48:37.697Z,41.60
2017-04-07T02:49:35.530Z,41.30
2017-04-07T02:50:33.328Z,41.40
2017-04-07T02:51:31.213Z,41.70
2017-04-07T02:53:28.237Z,41.70
2017-04-07T02:54:26.054Z,41.50
2017-04-07T02:55:23.861Z,41.20
2017-04-07T02:57:20.175Z,41.20
2017-04-07T02:58:18.713Z,41.10
2017-04-07T02:59:16.535Z,40.90
2017-04-07T03:00:14.340Z,41.60
2017-04-07T03:01:12.185Z,40.90
2017-04-07T03:02:09.990Z,41.30
2017-04-07T03:03:07.895Z,41.10
2017-04-07T03:04:05.777Z,41.40
2017-04-07T03:05:03.597Z,41.20
2017-04-07T03:06:01.414Z,41.20
2017-04-07T03:07:57.693Z,41.50
2017-04-07T03:08:55.497Z,41.50
2017-04-07T03:09:53.310Z,41.50
2017-04-07T03:10:51.129Z,41.90
2017-04-07T03:11:49.665Z,42.70
2017-04-07T03:12:47.557Z,42.20
2017-04-07T03:13:45.367Z,42.10
2017-04-07T03:14:43.169Z,41.90
2017-04-07T03:15:41.717Z,41.30
2017-04-07T03:16:39.514Z,41.60
2017-04-07T03:17:37.333Z,41.30
2017-04-07T03:18:35.129Z,41.80
2017-04-07T03:19:32.924Z,41.60
2017-04-07T03:20:30.734Z,42.00
2017-04-07T03:21:28.521Z,41.90
2017-04-07T03:22:26.338Z,41.80
2017-04-07T03:23:24.162Z,41.80
2017-04-07T03:24:21.958Z,42.20
2017-04-07T03:25:19.786Z,42.30
2017-04-07T03:26:17.598Z,41.80
2017-04-07T03:27:15.443Z,42.20
2017-04-07T03:28:13.261Z,42.30
2017-04-07T03:29:11.074Z,42.00
2017-04-07T03:30:08.890Z,42.00
2017-04-07T03:31:06.693Z,41.90
2017-04-07T03:33:03.074Z,41.60
2017-04-07T03:34:00.877Z,42.10
2017-04-07T03:35:57.153Z,42.30
2017-04-07T03:36:55.057Z,41.80
2017-04-07T03:37:52.850Z,41.80
2017-04-07T03:38:51.443Z,41.20
2017-04-07T03:39:49.272Z,41.40
2017-04-07T03:40:47.077Z,41.10
2017-04-07T03:41:44.891Z,41.40
2017-04-07T03:42:43.435Z,41.70
2017-04-07T03:43:41.235Z,42.00
2017-04-07T03:44:39.026Z,41.90
2017-04-07T03:45:36.825Z,41.20
2017-04-07T03:46:34.617Z,41.20
2017-04-07T03:47:32.593Z,41.60
2017-04-07T03:48:30.417Z,41.70
2017-04-07T03:49:28.221Z,41.50
2017-04-07T03:51:24.487Z,41.60
2017-04-07T03:52:22.281Z,41.70
2017-04-07T03:53:20.089Z,41.60
2017-04-07T03:54:17.897Z,42.10
2017-04-07T03:55:15.697Z,41.70
2017-04-07T03:56:13.507Z,41.50
2017-04-07T03:57:12.047Z,41.30
2017-04-07T03:58:09.848Z,41.50
2017-04-07T04:00:06.138Z,41.60
2017-04-07T04:01:03.929Z,40.60
2017-04-07T04:03:00.246Z,40.70
2017-04-07T04:04:57.285Z,40.80
2017-04-07T04:05:55.111Z,41.60
2017-04-07T04:06:52.913Z,40.90
2017-04-07T04:07:50.754Z,41.40
2017-04-07T04:08:48.574Z,40.50
2017-04-07T04:09:46.417Z,40.90
2017-04-07T04:10:44.221Z,39.90
2017-04-07T04:11:42.026Z,40.40
2017-04-07T04:12:39.830Z,40.40
2017-04-07T04:13:37.685Z,40.90
2017-04-07T04:14:36.233Z,40.80
2017-04-07T04:15:34.055Z,41.40
2017-04-07T04:16:35.149Z,40.90
2017-04-07T04:17:33.005Z,41.30
2017-04-07T04:18:30.833Z,41.10
2017-04-07T04:19:28.671Z,40.40
2017-04-07T04:20:26.524Z,40.50
2017-04-07T04:21:24.349Z,40.20
2017-04-07T04:22:22.902Z,41.30
2017-04-07T04:23:21.461Z,40.40
2017-04-07T04:24:19.293Z,40.70
2017-04-07T04:25:17.109Z,41.20
2017-04-07T04:26:15.663Z,41.30
2017-04-07T04:27:13.522Z,41.60
2017-04-07T04:28:11.333Z,40.80
2017-04-07T04:29:09.191Z,40.70
2017-04-07T04:30:07.025Z,40.00
2017-04-07T04:31:05.599Z,40.40
2017-04-07T04:32:04.173Z,40.70
2017-04-07T04:33:01.985Z,41.50
2017-04-07T04:34:00.603Z,41.30
2017-04-07T04:34:58.433Z,41.50
2017-04-07T04:35:56.258Z,41.90
2017-04-07T04:36:54.106Z,41.30
2017-04-07T04:37:51.958Z,41.00
2017-04-07T04:38:49.770Z,40.60
2017-04-07T04:39:48.313Z,41.30
2017-04-07T04:40:46.127Z,41.30
2017-04-07T04:41:43.953Z,40.90
2017-04-07T04:42:41.753Z,41.10
2017-04-07T04:43:39.557Z,40.50
2017-04-07T04:44:37.394Z,40.60
2017-04-07T04:45:35.199Z,40.40
2017-04-07T04:46:33.014Z,40.20
2017-04-07T04:47:30.818Z,40.50
2017-04-07T04:48:28.609Z,40.00
2017-04-07T04:49:26.452Z,40.40
2017-04-07T04:50:24.264Z,39.80
2017-04-07T04:51:22.060Z,39.90
2017-04-07T04:52:19.887Z,40.40
2017-04-07T04:53:17.699Z,39.80
2017-04-07T04:54:15.514Z,39.60
2017-04-07T04:55:13.356Z,39.60
2017-04-07T04:56:11.169Z,39.10
2017-04-07T04:57:08.995Z,39.10
2017-04-07T04:58:06.819Z,39.30
2017-04-07T04:59:04.649Z,39.10
2017-04-07T05:00:02.492Z,39.40
2017-04-07T05:01:00.346Z,39.70
2017-04-07T05:01:58.141Z,39.80
2017-04-07T05:02:55.953Z,40.10
2017-04-07T05:03:53.891Z,39.60
2017-04-07T05:04:51.710Z,39.50
2017-04-07T05:05:49.521Z,40.00
2017-04-07T05:07:45.953Z,40.90
2017-04-07T05:08:44.194Z,40.80
2017-04-07T05:09:42.017Z,40.50
2017-04-07T05:10:39.829Z,40.40
2017-04-07T05:12:36.101Z,39.70
2017-04-07T05:13:33.953Z,39.60
2017-04-07T05:14:31.790Z,40.30
2017-04-07T05:15:30.373Z,40.50
2017-04-07T05:16:28.193Z,40.20
2017-04-07T05:17:25.993Z,40.50
2017-04-07T05:19:22.301Z,40.70
2017-04-07T05:20:20.205Z,40.80
2017-04-07T05:21:18.035Z,40.80
2017-04-07T05:22:15.892Z,41.20
2017-04-07T05:23:13.710Z,41.40
2017-04-07T05:24:11.545Z,42.10
2017-04-07T05:25:10.117Z,42.10
2017-04-07T05:26:07.968Z,42.40
2017-04-07T05:27:05.788Z,42.60
2017-04-07T05:28:03.605Z,42.80
2017-04-07T05:29:01.434Z,42.10
2017-04-07T05:29:59.253Z,42.30
2017-04-07T05:30:57.048Z,42.10
2017-04-07T05:31:55.643Z,42.40
2017-04-07T05:32:53.475Z,42.10
2017-04-07T05:33:51.265Z,42.10
2017-04-07T05:34:49.844Z,42.40
2017-04-07T05:35:48.381Z,42.20
2017-04-07T05:36:46.227Z,42.40
2017-04-07T05:37:50.569Z,42.40
2017-04-07T05:39:02.149Z,41.60
2017-04-07T05:40:07.102Z,41.80
2017-04-07T05:41:13.327Z,42.30
2017-04-07T05:42:17.320Z,42.20
2017-04-07T05:43:24.940Z,42.20
2017-04-07T05:44:22.738Z,42.40
2017-04-07T05:45:20.576Z,42.80
2017-04-07T05:46:18.553Z,42.70
2017-04-07T05:47:17.433Z,42.70
2017-04-07T05:48:15.247Z,42.70
2017-04-07T05:49:13.049Z,42.40
2017-04-07T05:51:09.346Z,42.10
2017-04-07T05:52:07.138Z,42.30
2017-04-07T05:53:04.965Z,42.50
2017-04-07T05:55:02.124Z,42.00
2017-04-07T05:56:00.002Z,41.30
2017-04-07T05:56:58.042Z,41.80
2017-04-07T05:57:56.588Z,41.70
2017-04-07T05:58:54.369Z,41.50
2017-04-07T05:59:52.977Z,41.70
2017-04-07T06:00:50.820Z,41.30
2017-04-07T06:01:48.599Z,41.20
2017-04-07T06:02:46.414Z,41.50
2017-04-07T06:03:44.209Z,41.30
2017-04-07T06:04:42.753Z,41.30
2017-04-07T06:05:40.623Z,40.90
2017-04-07T06:06:38.443Z,40.70
2017-04-07T06:07:36.262Z,40.30
2017-04-07T06:08:34.058Z,40.40
2017-04-07T06:09:31.864Z,40.90
2017-04-07T06:10:29.673Z,41.30
2017-04-07T06:11:28.327Z,41.20
2017-04-07T06:12:26.125Z,41.60
2017-04-07T06:13:23.954Z,41.60
2017-04-07T06:14:21.748Z,41.00
2017-04-07T06:15:20.373Z,40.60
2017-04-07T06:16:18.202Z,40.70
2017-04-07T06:17:16.185Z,40.80
2017-04-07T06:18:13.978Z,41.10
2017-04-07T06:19:11.887Z,41.40
2017-04-07T06:20:09.709Z,41.50
2017-04-07T06:21:08.266Z,42.10
2017-04-07T06:22:06.117Z,41.20
2017-04-07T06:23:03.921Z,40.50
2017-04-07T06:24:01.749Z,40.10
2017-04-07T06:25:00.445Z,40.20
2017-04-07T06:25:58.273Z,41.30
2017-04-07T06:26:56.880Z,40.50
2017-04-07T06:27:54.677Z,40.90
2017-04-07T06:28:52.621Z,41.00
2017-04-07T06:29:50.444Z,41.90
2017-04-07T06:30:48.257Z,42.00
2017-04-07T06:32:44.576Z,41.90
2017-04-07T06:34:41.911Z,42.60
2017-04-07T06:35:39.977Z,42.60
2017-04-07T06:36:37.957Z,42.60
2017-04-07T06:37:35.836Z,42.30
2017-04-07T06:38:33.653Z,42.30
2017-04-07T06:39:31.515Z,42.10
2017-04-07T06:40:29.329Z,41.40
2017-04-07T06:41:27.169Z,41.20
2017-04-07T06:42:26.069Z,40.80
2017-04-07T06:43:24.285Z,41.30
2017-04-07T06:44:22.081Z,41.60
2017-04-07T06:45:20.546Z,41.10
2017-04-07T06:46:18.371Z,41.00
2017-04-07T06:47:16.168Z,40.90
2017-04-07T06:48:15.101Z,41.30
2017-04-07T06:49:13.408Z,41.30
2017-04-07T06:50:11.580Z,40.70
2017-04-07T06:52:08.896Z,40.40
2017-04-07T06:53:06.706Z,40.60
2017-04-07T06:54:04.502Z,40.80
2017-04-07T06:55:02.332Z,41.00
2017-04-07T06:56:00.212Z,40.80
2017-04-07T06:56:58.893Z,40.40
2017-04-07T06:57:57.461Z,40.80
2017-04-07T06:58:56.044Z,40.50
2017-04-07T06:59:53.917Z,40.90
2017-04-07T07:00:51.733Z,40.90
2017-04-07T07:02:48.972Z,41.60
2017-04-07T07:03:47.045Z,41.20
2017-04-07T07:05:44.103Z,40.60
2017-04-07T07:06:42.674Z,39.80
2017-04-07T07:07:41.265Z,39.80
2017-04-07T07:08:39.820Z,39.30
2017-04-07T07:09:38.381Z,39.90
2017-04-07T07:10:36.198Z,39.20
2017-04-07T07:11:33.982Z,39.60
2017-04-07T07:13:31.014Z,39.90
2017-04-07T07:14:28.814Z,40.00
2017-04-07T07:15:26.727Z,41.10
2017-04-07T07:16:24.533Z,40.50
2017-04-07T07:17:22.493Z,39.30
2017-04-07T07:18:20.320Z,39.80
2017-04-07T07:19:18.322Z,40.40
2017-04-07T07:20:16.129Z,41.20
2017-04-07T07:21:13.946Z,41.70
2017-04-07T07:22:11.814Z,41.10
2017-04-07T07:23:09.665Z,39.50
2017-04-07T07:24:07.481Z,40.00
2017-04-07T07:25:05.301Z,40.30
2017-04-07T07:26:03.186Z,40.10
2017-04-07T07:27:01.014Z,41.00
2017-04-07T07:27:58.853Z,40.50
2017-04-07T07:28:56.713Z,40.60
2017-04-07T07:29:54.509Z,39.50
2017-04-07T07:30:53.064Z,40.20
2017-04-07T07:31:50.925Z,40.70
2017-04-07T07:32:48.737Z,40.70
2017-04-07T07:33:46.566Z,39.90
2017-04-07T07:34:44.357Z,40.50
2017-04-07T07:37:39.144Z,40.00
2017-04-07T07:38:36.945Z,40.40
2017-04-07T07:39:34.737Z,40.80
2017-04-07T07:40:32.545Z,41.10
2017-04-07T07:41:30.370Z,41.50
2017-04-07T07:42:28.182Z,41.50
2017-04-07T07:43:25.977Z,41.20
2017-04-07T07:44:23.793Z,41.60
2017-04-07T07:45:21.622Z,41.30
2017-04-07T07:46:19.481Z,40.60
2017-04-07T07:47:17.262Z,40.50
2017-04-07T07:48:15.093Z,40.20
2017-04-07T07:49:12.929Z,40.90
2017-04-07T07:50:11.490Z,40.40
2017-04-07T07:51:09.306Z,41.00
2017-04-07T07:52:07.120Z,41.80
2017-04-07T07:53:05.017Z,41.80
2017-04-07T07:54:02.817Z,41.80
2017-04-07T07:55:00.621Z,40.30
2017-04-07T07:55:58.425Z,40.40
2017-04-07T07:56:56.253Z,40.10
2017-04-07T07:57:54.066Z,40.90
2017-04-07T07:58:51.878Z,40.80
2017-04-07T07:59:49.697Z,41.20
2017-04-07T08:00:47.520Z,41.00
2017-04-07T08:01:45.374Z,42.40
2017-04-07T08:03:41.680Z,40.40
2017-04-07T08:04:39.500Z,40.70
2017-04-07T08:05:37.301Z,40.90
2017-04-07T08:06:35.139Z,41.80
2017-04-07T08:07:32.986Z,41.40
2017-04-07T08:08:30.817Z,41.40
2017-04-07T08:09:28.654Z,42.10
2017-04-07T08:10:26.895Z,42.40
2017-04-07T08:12:23.189Z,40.80
2017-04-07T08:13:21.024Z,41.10
2017-04-07T08:14:18.862Z,41.10
2017-04-07T08:15:17.406Z,42.20
2017-04-07T08:16:15.224Z,41.80
2017-04-07T08:17:13.041Z,40.80
2017-04-07T08:18:10.862Z,40.80
2017-04-07T08:19:08.687Z,41.10
2017-04-07T08:20:06.505Z,41.00
2017-04-07T08:21:04.327Z,41.30
2017-04-07T08:22:02.163Z,41.40
2017-04-07T08:22:59.973Z,40.60
2017-04-07T08:23:57.777Z,40.50
2017-04-07T08:24:55.673Z,40.30
2017-04-07T08:26:52.901Z,42.50
2017-04-07T08:27:50.762Z,41.50
2017-04-07T08:28:48.568Z,40.90
2017-04-07T08:29:46.366Z,40.30
2017-04-07T08:30:44.145Z,40.70
2017-04-07T08:31:41.961Z,40.40
2017-04-07T08:32:39.769Z,39.50
2017-04-07T08:33:37.669Z,40.30
2017-04-07T08:34:35.500Z,39.50
2017-04-07T08:35:33.286Z,40.40
2017-04-07T08:36:31.089Z,40.30
2017-04-07T08:37:28.885Z,40.90
2017-04-07T08:38:26.735Z,40.10
2017-04-07T08:39:24.532Z,40.30
2017-04-07T08:40:22.513Z,40.10
2017-04-07T08:41:20.317Z,40.60
2017-04-07T08:42:18.121Z,40.00
2017-04-07T08:43:15.929Z,40.20
2017-04-07T08:44:13.730Z,40.20
2017-04-07T08:45:11.544Z,40.20
2017-04-07T08:46:09.337Z,41.00
2017-04-07T08:47:07.153Z,40.00
2017-04-07T08:48:04.958Z,40.70
2017-04-07T08:49:03.522Z,41.00
2017-04-07T08:50:01.324Z,41.70
2017-04-07T08:50:59.135Z,41.30
2017-04-07T08:51:57.089Z,42.20
2017-04-07T08:52:54.901Z,41.70
2017-04-07T08:53:52.745Z,41.80
2017-04-07T08:54:50.557Z,41.90
2017-04-07T08:55:48.363Z,41.30
2017-04-07T08:56:46.168Z,41.30
2017-04-07T08:57:44.003Z,40.70
2017-04-07T08:58:41.817Z,40.30
2017-04-07T08:59:39.618Z,39.80
2017-04-07T09:00:37.602Z,41.10
2017-04-07T09:01:36.150Z,40.10
2017-04-07T09:02:33.977Z,41.10
2017-04-07T09:03:31.789Z,40.90
2017-04-07T09:04:29.611Z,40.80
2017-04-07T09:05:27.425Z,40.50
2017-04-07T09:06:25.241Z,40.50
2017-04-07T09:07:23.084Z,40.60
2017-04-07T09:08:20.948Z,40.30
2017-04-07T09:09:18.789Z,40.00
2017-04-07T09:10:16.653Z,40.50
2017-04-07T09:11:15.226Z,40.40
2017-04-07T09:13:11.679Z,40.10
2017-04-07T09:14:09.516Z,39.50
2017-04-07T09:16:05.830Z,38.60
2017-04-07T09:17:03.649Z,38.70
2017-04-07T09:18:01.491Z,38.60
2017-04-07T09:19:00.038Z,38.10
2017-04-07T09:19:57.856Z,38.10
2017-04-07T09:20:55.650Z,38.40
2017-04-07T09:21:53.473Z,39.70
2017-04-07T09:22:51.298Z,39.40
2017-04-07T09:23:49.129Z,39.80
2017-04-07T09:24:46.991Z,39.60
2017-04-07T09:25:44.773Z,39.20
2017-04-07T09:26:42.581Z,38.90
2017-04-07T09:27:40.386Z,39.50
2017-04-07T09:28:38.241Z,39.10
2017-04-07T09:29:36.079Z,39.30
2017-04-07T09:30:33.876Z,39.50
2017-04-07T09:31:31.753Z,39.80
2017-04-07T09:33:29.466Z,40.10
2017-04-07T09:34:27.285Z,39.50
2017-04-07T09:35:25.086Z,39.80
2017-04-07T09:36:22.905Z,40.90
2017-04-07T09:37:21.507Z,41.60
2017-04-07T09:38:19.433Z,40.20
2017-04-07T09:39:17.293Z,39.70
2017-04-07T09:40:16.008Z,40.00
2017-04-07T09:42:12.374Z,40.00
2017-04-07T09:43:10.245Z,39.20
2017-04-07T09:44:08.082Z,39.20
2017-04-07T09:45:05.890Z,38.80
2017-04-07T09:46:03.697Z,38.60
2017-04-07T09:47:01.601Z,38.60
2017-04-07T09:47:59.411Z,38.00
2017-04-07T09:48:57.256Z,37.90
2017-04-07T09:49:55.082Z,38.40
2017-04-07T09:50:52.881Z,38.40
2017-04-07T09:51:50.732Z,38.00
2017-04-07T09:53:47.753Z,37.40
2017-04-07T09:54:45.566Z,37.90
2017-04-07T09:55:43.567Z,38.20
2017-04-07T09:56:41.407Z,38.60
2017-04-07T09:57:39.208Z,38.30
2017-04-07T09:58:37.014Z,38.10
2017-04-07T09:59:34.837Z,39.20
2017-04-07T10:00:32.665Z,38.90
2017-04-07T10:01:30.501Z,39.10
2017-04-07T10:02:28.329Z,39.70
2017-04-07T10:03:26.141Z,40.50
2017-04-07T10:05:22.462Z,39.30
2017-04-07T10:07:18.830Z,39.40
2017-04-07T10:08:16.641Z,38.80
2017-04-07T10:09:14.516Z,38.60
2017-04-07T10:10:12.354Z,38.20
2017-04-07T10:11:10.166Z,38.40
2017-04-07T10:12:08.023Z,38.40
2017-04-07T10:13:05.850Z,38.40
2017-04-07T10:14:04.413Z,38.50
2017-04-07T10:15:02.967Z,37.90
2017-04-07T10:16:00.794Z,38.80
2017-04-07T10:16:58.681Z,38.50
2017-04-07T10:17:56.541Z,38.20
2017-04-07T10:19:53.613Z,38.00
2017-04-07T10:20:52.160Z,37.80
2017-04-07T10:21:50.733Z,37.40
2017-04-07T10:22:48.537Z,37.80
2017-04-07T10:23:46.346Z,37.70
2017-04-07T10:24:44.233Z,37.60
2017-04-07T10:25:42.094Z,37.40
2017-04-07T10:26:39.966Z,37.10
2017-04-07T10:27:37.826Z,37.30
2017-04-07T10:28:35.912Z,36.90
2017-04-07T10:29:34.457Z,37.00
2017-04-07T10:30:32.357Z,37.30
2017-04-07T10:32:28.770Z,36.90
2017-04-07T10:33:26.569Z,37.20
2017-04-07T10:34:25.097Z,37.10
2017-04-07T10:35:22.906Z,37.20
2017-04-07T10:36:20.726Z,36.90
2017-04-07T10:38:16.974Z,36.80
2017-04-07T10:39:15.508Z,36.70
2017-04-07T10:40:13.378Z,37.20
2017-04-07T10:42:09.737Z,36.50
2017-04-07T10:43:07.565Z,36.30
2017-04-07T10:44:05.373Z,36.40
2017-04-07T10:45:03.192Z,36.60
2017-04-07T10:46:00.997Z,36.70
2017-04-07T10:46:58.801Z,36.80
2017-04-07T10:47:57.360Z,36.80
2017-04-07T10:48:55.193Z,36.60
2017-04-07T10:49:53.069Z,37.00
2017-04-07T10:50:50.905Z,36.80
2017-04-07T10:51:48.681Z,36.50
2017-04-07T10:53:44.943Z,36.70
2017-04-07T10:54:42.759Z,36.50
2017-04-07T10:56:39.061Z,37.10
2017-04-07T10:57:36.905Z,37.20
2017-04-07T10:58:34.699Z,37.00
2017-04-07T10:59:32.509Z,36.70
2017-04-07T11:00:30.310Z,36.90
2017-04-07T11:01:28.124Z,36.80
2017-04-07T11:02:25.989Z,36.50
2017-04-07T11:03:23.818Z,36.50
2017-04-07T11:04:21.621Z,36.80
2017-04-07T11:05:19.429Z,36.80
2017-04-07T11:06:17.225Z,36.70
2017-04-07T11:07:15.017Z,36.20
2017-04-07T11:08:12.834Z,36.80
2017-04-07T11:09:11.373Z,36.40
2017-04-07T11:10:09.209Z,36.70
2017-04-07T11:11:07.043Z,36.80
2017-04-07T11:12:04.885Z,36.80
2017-04-07T11:13:02.707Z,36.70
2017-04-07T11:14:00.525Z,36.60
2017-04-07T11:14:58.396Z,36.60
2017-04-07T11:15:56.337Z,37.10
2017-04-07T11:16:54.911Z,37.40
2017-04-07T11:17:53.449Z,36.70
2017-04-07T11:18:51.245Z,37.20
2017-04-07T11:19:49.061Z,37.10
2017-04-07T11:21:45.398Z,36.40
2017-04-07T11:22:43.230Z,36.60
2017-04-07T11:23:41.133Z,36.50
2017-04-07T11:24:38.953Z,36.50
2017-04-07T11:25:36.785Z,36.90
2017-04-07T11:26:34.597Z,36.70
2017-04-07T11:27:32.397Z,36.50
2017-04-07T11:28:30.183Z,36.20
2017-04-07T11:30:26.453Z,36.90
2017-04-07T11:31:24.297Z,36.80
2017-04-07T11:32:22.124Z,36.90
2017-04-07T11:33:20.493Z,37.00
2017-04-07T11:34:18.449Z,37.20
2017-04-07T11:35:17.036Z,38.00
2017-04-07T11:36:15.609Z,37.60
2017-04-07T11:37:13.673Z,37.50
2017-04-07T11:38:12.708Z,37.00
2017-04-07T11:39:11.266Z,37.10
2017-04-07T11:40:09.085Z,37.40
2017-04-07T11:41:07.115Z,37.10
2017-04-07T11:42:04.928Z,36.80
2017-04-07T11:43:03.036Z,36.90
2017-04-07T11:44:01.043Z,37.00
2017-04-07T11:44:58.871Z,37.30
2017-04-07T11:45:56.694Z,36.90
2017-04-07T11:46:54.523Z,36.70
2017-04-07T11:47:52.519Z,36.60
2017-04-07T11:48:50.389Z,37.10
2017-04-07T11:50:46.985Z,36.90
2017-04-07T11:51:44.872Z,36.40
2017-04-07T11:52:42.709Z,37.10
2017-04-07T11:53:40.558Z,36.70
2017-04-07T11:54:38.350Z,37.00
2017-04-07T11:55:36.202Z,37.30
2017-04-07T11:57:33.254Z,37.00
2017-04-07T11:58:31.089Z,36.50
2017-04-07T11:59:29.690Z,36.80
2017-04-07T12:00:28.321Z,36.90
2017-04-07T12:01:26.269Z,36.70
2017-04-07T12:02:24.141Z,36.70
2017-04-07T12:03:22.065Z,37.00
2017-04-07T12:04:20.633Z,36.90
2017-04-07T12:05:19.253Z,37.10
2017-04-07T12:06:17.118Z,37.00
2017-04-07T12:07:14.931Z,37.00
2017-04-07T12:08:12.767Z,37.60
2017-04-07T12:09:10.630Z,37.60
2017-04-07T12:10:09.189Z,38.00
2017-04-07T12:11:07.825Z,37.90
2017-04-07T12:12:05.639Z,37.70
2017-04-07T12:13:03.508Z,37.90
2017-04-07T12:14:01.580Z,37.30
2017-04-07T12:14:59.433Z,37.20
2017-04-07T12:15:57.255Z,37.30
2017-04-07T12:16:55.114Z,37.90
2017-04-07T12:17:53.679Z,37.80
2017-04-07T12:18:52.237Z,37.80
2017-04-07T12:19:50.045Z,37.90
2017-04-07T12:20:47.891Z,37.70
2017-04-07T12:21:45.816Z,38.00
2017-04-07T12:22:43.650Z,37.50
2017-04-07T12:23:41.536Z,37.60
2017-04-07T12:24:39.346Z,37.80
2017-04-07T12:25:37.205Z,37.30
2017-04-07T12:26:35.009Z,37.50
2017-04-07T12:27:33.590Z,37.20
2017-04-07T12:28:32.143Z,37.20
2017-04-07T12:29:29.956Z,37.10
2017-04-07T12:30:27.773Z,37.80
2017-04-07T12:31:26.351Z,37.70
2017-04-07T12:32:24.174Z,38.00
2017-04-07T12:33:21.990Z,37.70
2017-04-07T12:34:19.802Z,37.50
2017-04-07T12:35:18.378Z,37.00
2017-04-07T12:36:17.001Z,37.10
2017-04-07T12:37:14.795Z,36.90
2017-04-07T12:38:12.613Z,37.40
2017-04-07T12:39:10.467Z,37.40
2017-04-07T12:40:08.281Z,37.30
2017-04-07T12:41:06.116Z,37.10
2017-04-07T12:42:04.083Z,37.60
2017-04-07T12:43:02.243Z,37.40
2017-04-07T12:44:00.793Z,38.20
2017-04-07T12:44:58.635Z,38.00
2017-04-07T12:45:57.190Z,38.80
2017-04-07T12:46:55.062Z,37.90
2017-04-07T12:47:52.921Z,37.60
2017-04-07T12:48:50.722Z,37.20
2017-04-07T12:49:48.565Z,36.90
2017-04-07T12:50:46.409Z,37.60
2017-04-07T12:52:43.497Z,37.70
2017-04-07T12:53:41.332Z,38.10
2017-04-07T12:54:39.175Z,37.70
2017-04-07T12:55:37.001Z,37.30
2017-04-07T12:57:33.330Z,37.10
2017-04-07T12:58:31.143Z,37.40
2017-04-07T12:59:28.982Z,37.20
2017-04-07T13:00:26.810Z,37.00
2017-04-07T13:01:24.667Z,36.80
2017-04-07T13:04:19.426Z,36.90
2017-04-07T13:05:17.281Z,36.90
2017-04-07T13:06:15.090Z,36.80
2017-04-07T13:07:12.925Z,36.70
2017-04-07T13:08:11.221Z,36.80
2017-04-07T13:09:09.041Z,36.90
2017-04-07T13:10:06.908Z,36.80
2017-04-07T13:11:04.829Z,36.50
2017-04-07T13:12:02.661Z,36.70
2017-04-07T13:13:01.297Z,36.60
2017-04-07T13:13:59.897Z,36.80
2017-04-07T13:14:57.697Z,36.80
2017-04-07T13:15:55.566Z,37.30
2017-04-07T13:16:53.378Z,37.10
2017-04-07T13:17:51.226Z,37.50
2017-04-07T13:18:49.813Z,36.90
2017-04-07T13:19:48.363Z,37.40
2017-04-07T13:20:46.170Z,37.00
2017-04-07T13:21:43.991Z,36.70
2017-04-07T13:22:41.945Z,37.50